Time;durP1;ratioP1;P1;durP2;ratioP2;P2;SDS_P1;SDS_P2;PMS_P1;PMS_P2;Temp;Humidity;BMP_temperature;BMP_pressure;BME280_temperature;BME280_humidity;BME280_pressure;Samples;Min_cycle;Max_cycle;Signal;HPM_P1;HPM_P2
2022/09/12 00:00:31;;;;;;;20.50;14.40;;;;;;;11.77;84.94;98596.40;88115;1276;24437;-73
2022/09/12 00:02:53;;;;;;;19.90;14.50;;;;;;;11.78;84.85;98593.37;88107;1277;22593;-74
2022/09/12 00:04:55;;;;;;;21.50;13.70;;;;;;;11.78;84.95;98586.37;88459;1276;24794;-72
2022/09/12 00:06:57;;;;;;;15.00;13.50;;;;;;;11.78;84.90;98585.66;88310;1276;24997;-71
2022/09/12 00:09:05;;;;;;;14.20;12.70;;;;;;;11.77;84.81;98584.46;88281;1276;22566;-73
2022/09/12 00:11:10;;;;;;;16.30;12.90;;;;;;;11.76;84.80;98585.23;88362;1276;22765;-73
2022/09/12 00:13:11;;;;;;;13.10;11.80;;;;;;;11.74;84.92;98587.23;88198;1279;24271;-73
2022/09/12 00:15:13;;;;;;;24.20;12.30;;;;;;;11.73;84.80;98585.19;88356;1276;22590;-73
2022/09/12 00:17:15;;;;;;;25.60;11.80;;;;;;;11.72;84.72;98585.45;88114;1279;22726;-71
2022/09/12 00:19:17;;;;;;;13.80;12.40;;;;;;;11.71;84.76;98583.24;88193;1276;24211;-73
2022/09/12 00:21:21;;;;;;;14.80;11.80;;;;;;;11.68;84.72;98588.51;88750;1278;22581;-70
2022/09/12 00:23:22;;;;;;;22.30;12.40;;;;;;;11.67;84.76;98584.67;88221;1276;24385;-72
2022/09/12 00:25:24;;;;;;;20.20;12.30;;;;;;;11.66;84.85;98586.14;88242;1276;26694;-71
2022/09/12 00:27:27;;;;;;;13.60;11.70;;;;;;;11.66;84.83;98589.88;88194;1279;24242;-72
2022/09/12 00:29:28;;;;;;;17.50;11.80;;;;;;;11.63;84.84;98588.63;88288;1276;22617;-71
2022/09/12 00:31:30;;;;;;;11.60;10.40;;;;;;;11.60;84.79;98591.98;88133;1276;22539;-72
2022/09/12 00:33:32;;;;;;;12.00;10.80;;;;;;;11.56;84.72;98589.38;88215;1277;22722;-75
2022/09/12 00:35:34;;;;;;;13.70;12.20;;;;;;;11.53;84.66;98592.58;88289;1277;25128;-71
2022/09/12 00:37:35;;;;;;;18.30;13.20;;;;;;;11.50;84.66;98589.39;88284;1276;22556;-72
2022/09/12 00:39:37;;;;;;;12.60;11.00;;;;;;;11.49;84.71;98592.45;88231;1276;23262;-72
2022/09/12 00:41:39;;;;;;;15.10;11.40;;;;;;;11.47;84.76;98588.54;88103;1277;23142;-72
2022/09/12 00:43:47;;;;;;;27.70;12.80;;;;;;;11.43;84.64;98589.09;88148;1279;24261;-72
2022/09/12 00:45:49;;;;;;;14.00;11.60;;;;;;;11.41;84.83;98598.36;88133;1276;25363;-73
2022/09/12 00:47:50;;;;;;;17.20;12.20;;;;;;;11.38;84.72;98598.52;88198;1277;22588;-72
2022/09/12 00:50:11;;;;;;;16.10;12.30;;;;;;;11.35;84.66;98597.30;88110;1279;23180;-72
2022/09/12 00:52:21;;;;;;;15.70;11.70;;;;;;;11.29;84.66;98593.75;88033;1276;22631;-73
2022/09/12 00:54:29;;;;;;;24.90;11.80;;;;;;;11.28;84.73;98597.70;88481;1276;22559;-72
2022/09/12 00:56:32;;;;;;;20.30;11.50;;;;;;;11.25;84.80;98597.48;88203;1276;26598;-71
2022/09/12 00:58:40;;;;;;;13.50;12.10;;;;;;;11.25;84.73;98595.55;88140;1276;25287;-72
2022/09/12 01:00:42;;;;;;;18.60;12.90;;;;;;;11.25;84.92;98596.98;88170;1276;22776;-71
2022/09/12 01:03:14;;;;;;;17.00;12.60;;;;;;;11.24;84.92;98595.95;88214;1276;23242;-73
2022/09/12 01:05:16;;;;;;;13.60;11.40;;;;;;;11.25;84.93;98599.26;88078;1277;23433;-73
2022/09/12 01:07:20;;;;;;;20.10;12.00;;;;;;;11.25;84.94;98599.08;88223;1276;26560;-72
2022/09/12 01:09:23;;;;;;;24.90;11.70;;;;;;;11.24;84.92;98593.13;88336;1276;23305;-72
2022/09/12 01:11:25;;;;;;;12.10;10.80;;;;;;;11.25;85.02;98596.06;88334;1276;22633;-71
2022/09/12 01:13:27;;;;;;;13.60;11.50;;;;;;;11.25;85.02;98592.38;88154;1276;24247;-73
2022/09/12 01:15:29;;;;;;;16.90;10.10;;;;;;;11.26;84.96;98593.40;88103;1276;23057;-72
2022/09/12 01:17:45;;;;;;;16.30;9.70;;;;;;;11.25;84.97;98590.63;88152;1276;25394;-71
2022/09/12 01:19:59;;;;;;;19.30;9.20;;;;;;;11.26;85.00;98590.77;88172;1276;24290;-72
2022/09/12 01:22:28;;;;;;;11.50;9.30;;;;;;;11.23;84.91;98582.45;88185;1277;27521;-73
2022/09/12 01:25:04;;;;;;;14.90;9.30;;;;;;;11.22;84.84;98585.86;88238;1276;25442;-72
2022/09/12 01:27:12;;;;;;;10.60;9.30;;;;;;;11.24;84.83;98588.61;88196;1277;24279;-71
2022/09/12 01:29:14;;;;;;;17.10;9.30;;;;;;;11.24;84.93;98589.98;88153;1276;22581;-71
2022/09/12 01:31:46;;;;;;;16.50;9.00;;;;;;;11.25;85.02;98594.35;88214;1276;23468;-72
2022/09/12 01:34:15;;;;;;;11.30;9.40;;;;;;;11.26;84.89;98596.06;88040;1277;24427;-73
2022/09/12 01:36:42;;;;;;;14.60;8.90;;;;;;;11.26;84.96;98597.42;88195;1277;25377;-73
2022/09/12 01:38:58;;;;;;;11.50;8.50;;;;;;;11.27;84.91;98598.11;88196;1276;23168;-72
2022/09/12 01:41:29;;;;;;;14.10;10.00;;;;;;;11.26;84.85;98593.77;88192;1276;25344;-72
2022/09/12 01:43:40;;;;;;;12.30;10.30;;;;;;;11.26;85.08;98592.69;88153;1276;25524;-72
2022/09/12 01:46:02;;;;;;;11.30;9.10;;;;;;;11.25;84.88;98596.79;88081;1279;24117;-73
2022/09/12 01:48:12;;;;;;;;;;;;;;;11.25;84.99;98595.73;88188;1277;22605;-72
2022/09/12 01:50:20;;;;;;;9.60;8.60;;;;;;;11.24;84.97;98599.11;88230;1277;22667;-71
2022/09/12 01:52:40;;;;;;;18.00;9.00;;;;;;;11.25;84.99;98600.68;88316;1277;22596;-71
2022/09/12 01:54:58;;;;;;;15.00;9.30;;;;;;;11.25;85.03;98601.72;88232;1277;25441;-73
2022/09/12 01:57:06;;;;;;;20.20;9.40;;;;;;;11.27;84.98;98603.21;88148;1277;22569;-72
2022/09/12 01:59:14;;;;;;;9.90;8.60;;;;;;;11.27;84.93;98609.90;88236;1276;23202;-73
2022/09/12 02:01:28;;;;;;;10.50;9.20;;;;;;;11.27;84.92;98607.58;88192;1276;24411;-72
2022/09/12 02:03:37;;;;;;;18.60;9.40;;;;;;;11.25;84.88;98611.23;88152;1276;22578;-72
2022/09/12 02:05:46;;;;;;;9.30;8.40;;;;;;;11.28;84.91;98614.57;88132;1276;22686;-72
2022/09/12 02:07:55;;;;;;;15.00;9.50;;;;;;;11.28;84.83;98613.15;88252;1275;26854;-72
2022/09/12 02:10:15;;;;;;;17.60;10.20;;;;;;;11.30;84.84;98614.27;88180;1277;26021;-71
2022/09/12 02:12:23;;;;;;;19.00;10.00;;;;;;;11.31;84.87;98614.05;88137;1275;22739;-71
2022/09/12 02:14:38;;;;;;;11.40;9.90;;;;;;;11.31;84.89;98611.74;86943;1276;1564905;-71
2022/09/12 02:16:45;;;;;;;18.40;10.30;;;;;;;11.30;84.77;98613.91;88141;1276;22670;-72
2022/09/12 02:18:56;;;;;;;19.20;11.50;;;;;;;11.30;84.84;98613.73;88089;1276;26541;-72
2022/09/12 02:21:00;;;;;;;18.30;11.80;;;;;;;11.32;84.95;98610.65;88295;1276;25326;-70
2022/09/12 02:23:07;;;;;;;13.40;12.00;;;;;;;11.32;84.85;98606.64;88171;1280;22567;-73
2022/09/12 02:25:11;;;;;;;18.10;12.10;;;;;;;11.33;84.97;98611.64;88073;1276;25492;-71
2022/09/12 02:27:39;;;;;;;18.60;12.80;;;;;;;11.34;85.09;98609.66;87997;1279;26382;-72
2022/09/12 02:29:46;;;;;;;13.60;12.20;;;;;;;11.35;84.84;98609.61;88084;1276;22721;-72
2022/09/12 02:31:57;;;;;;;13.10;11.80;;;;;;;11.33;84.85;98604.05;88105;1276;22578;-72
2022/09/12 02:34:05;;;;;;;;;;;;;;;11.32;84.86;98604.33;88128;1277;25297;-72
2022/09/12 02:36:06;;;;;;;15.10;13.00;;;;;;;11.28;84.90;98601.57;88098;1276;22701;-71
2022/09/12 02:38:26;;;;;;;20.30;13.90;;;;;;;11.26;84.94;98596.76;88125;1276;23098;-71
2022/09/12 02:40:28;;;;;;;20.50;13.90;;;;;;;11.24;84.99;98595.59;88097;1280;23483;-72
2022/09/12 02:42:30;;;;;;;22.80;15.30;;;;;;;11.22;84.91;98595.02;88157;1277;22591;-72
2022/09/12 02:44:33;;;;;;;18.80;15.60;;;;;;;11.20;84.87;98593.92;88208;1276;24318;-72
2022/09/12 02:46:42;;;;;;;27.10;17.20;;;;;;;11.17;84.83;98589.36;88209;1276;22528;-72
2022/09/12 02:48:44;;;;;;;21.30;18.00;;;;;;;11.12;84.91;98590.34;88154;1276;24226;-71
2022/09/12 02:50:46;;;;;;;24.80;18.80;;;;;;;11.12;84.94;98593.69;88170;1276;24454;-72
2022/09/12 02:52:47;;;;;;;27.90;20.20;;;;;;;11.09;84.99;98591.02;88201;1277;22548;-72
2022/09/12 02:54:50;;;;;;;29.80;21.30;;;;;;;11.06;85.04;98592.42;88190;1276;24598;-72
2022/09/12 02:56:52;;;;;;;31.90;20.90;;;;;;;11.04;84.97;98594.82;88205;1276;25439;-70
2022/09/12 02:58:58;;;;;;;28.20;19.80;;;;;;;11.01;85.10;98597.42;88143;1277;25319;-73
2022/09/12 03:01:24;;;;;;;32.00;21.10;;;;;;;10.99;84.98;98598.45;88137;1277;26041;-70
2022/09/12 03:03:52;;;;;;;29.80;21.90;;;;;;;10.95;85.06;98599.05;88052;1276;22646;-73
2022/09/12 03:06:02;;;;;;;35.90;20.60;;;;;;;10.90;85.03;98603.85;88190;1277;22567;-72
2022/09/12 03:08:26;;;;;;;32.40;22.10;;;;;;;10.83;85.07;98599.12;88136;1276;22564;-72
2022/09/12 03:10:37;;;;;;;35.70;21.60;;;;;;;10.84;85.04;98605.61;88194;1277;22724;-72
2022/09/12 03:12:47;;;;;;;35.90;21.70;;;;;;;10.80;85.05;98608.26;88210;1277;23136;-71
2022/09/12 03:15:10;;;;;;;27.20;20.40;;;;;;;10.78;85.25;98611.75;88229;1277;24234;-71
2022/09/12 03:17:18;;;;;;;29.70;21.00;;;;;;;10.74;85.16;98609.66;88158;1276;22708;-72
2022/09/12 03:19:31;;;;;;;29.70;22.60;;;;;;;10.70;85.15;98612.12;88111;1276;22789;-71
2022/09/12 03:21:44;;;;;;;28.70;21.20;;;;;;;10.69;85.01;98610.12;88143;1277;27273;-72
2022/09/12 03:24:20;;;;;;;34.60;22.50;;;;;;;10.66;85.13;98612.55;88217;1277;22716;-72
2022/09/12 03:26:39;;;;;;;34.00;21.40;;;;;;;10.65;85.28;98615.42;88179;1278;22566;-70
2022/09/12 03:28:44;;;;;;;30.90;23.70;;;;;;;10.63;85.20;98614.98;88028;1278;22715;-71
2022/09/12 03:30:48;;;;;;;31.00;24.10;;;;;;;10.62;85.26;98619.63;88151;1277;25337;-73
2022/09/12 03:32:52;;;;;;;32.90;23.70;;;;;;;10.58;85.39;98615.45;88373;1277;22601;-71
2022/09/12 03:34:54;;;;;;;30.30;23.10;;;;;;;10.59;85.20;98618.89;88690;1278;24230;-71
2022/09/12 03:36:55;;;;;;;26.90;23.90;;;;;;;10.57;85.22;98614.62;88020;1281;22579;-72
2022/09/12 03:38:57;;;;;;;28.40;23.80;;;;;;;10.58;85.10;98619.83;88140;1274;24332;-73
2022/09/12 03:41:00;;;;;;;29.90;23.70;;;;;;;10.57;85.12;98619.73;88124;1278;26756;-70
2022/09/12 03:43:03;;;;;;;34.60;23.40;;;;;;;10.56;85.44;98623.98;88077;1278;22670;-71
2022/09/12 03:45:05;;;;;;;28.50;22.50;;;;;;;10.55;85.36;98627.90;88489;1278;23142;-72
2022/09/12 03:47:07;;;;;;;40.70;23.10;;;;;;;10.55;85.10;98631.26;88112;1278;22554;-71
2022/09/12 03:49:09;;;;;;;35.50;23.10;;;;;;;10.54;85.22;98631.98;88143;1278;25581;-72
2022/09/12 03:51:13;;;;;;;27.70;22.20;;;;;;;10.53;85.30;98634.64;88178;1277;22676;-73
2022/09/12 03:53:15;;;;;;;33.00;22.10;;;;;;;10.53;85.45;98635.36;87967;1279;25545;-72
2022/09/12 03:55:17;;;;;;;29.60;21.80;;;;;;;10.52;85.31;98636.85;88091;1277;23291;-72
2022/09/12 03:57:19;;;;;;;28.50;21.60;;;;;;;10.51;85.39;98635.85;88147;1278;25324;-72
2022/09/12 03:59:20;;;;;;;29.90;21.90;;;;;;;10.48;85.30;98633.40;88065;1281;22737;-72
2022/09/12 04:01:22;;;;;;;31.20;21.50;;;;;;;10.47;85.39;98636.23;88126;1278;22721;-72
2022/09/12 04:03:24;;;;;;;33.40;21.70;;;;;;;10.46;85.41;98638.58;88189;1278;23116;-72
2022/09/12 04:05:26;;;;;;;28.20;21.80;;;;;;;10.44;85.21;98638.30;88070;1278;22557;-71
2022/09/12 04:07:28;;;;;;;23.70;20.70;;;;;;;10.43;85.39;98636.98;88180;1277;23466;-73
2022/09/12 04:09:30;;;;;;;27.30;20.40;;;;;;;10.40;85.30;98636.24;88141;1278;25483;-72
2022/09/12 04:11:31;;;;;;;24.40;19.70;;;;;;;10.37;85.27;98635.14;88157;1277;25491;-72
2022/09/12 04:13:34;;;;;;;34.50;21.30;;;;;;;10.35;85.34;98636.46;88109;1277;22560;-73
2022/09/12 04:15:36;;;;;;;26.90;20.50;;;;;;;10.34;85.28;98634.97;88424;1277;22721;-71
2022/09/12 04:17:37;;;;;;;27.00;20.70;;;;;;;10.32;85.35;98634.69;88212;1278;27438;-70
2022/09/12 04:19:39;;;;;;;35.10;22.40;;;;;;;10.30;85.38;98638.27;88164;1277;22703;-72
2022/09/12 04:21:41;;;;;;;24.60;21.90;;;;;;;10.29;85.35;98638.70;88085;1278;23879;-72
2022/09/12 04:23:42;;;;;;;32.80;21.00;;;;;;;10.27;85.42;98644.42;88182;1277;22553;-72
2022/09/12 04:25:53;;;;;;;30.00;20.50;;;;;;;10.26;85.37;98644.86;88146;1278;25512;-71
2022/09/12 04:27:54;;;;;;;25.30;21.40;;;;;;;10.24;85.25;98645.84;88002;1278;25303;-71
2022/09/12 04:29:57;;;;;;;27.00;20.90;;;;;;;10.22;85.28;98648.23;88189;1278;22575;-72
2022/09/12 04:31:58;;;;;;;33.10;22.60;;;;;;;10.20;85.43;98643.91;88146;1277;23204;-72
2022/09/12 04:34:00;;;;;;;30.80;22.30;;;;;;;10.20;85.39;98650.79;88174;1276;25628;-71
2022/09/12 04:36:07;;;;;;;37.20;24.60;;;;;;;10.16;85.50;98642.38;88285;1278;22693;-72
2022/09/12 04:38:08;;;;;;;31.50;24.70;;;;;;;10.18;85.47;98645.61;90131;1275;22596;-73
2022/09/12 04:40:10;;;;;;;30.60;23.70;;;;;;;10.18;85.28;98648.97;88284;1278;22922;-71
2022/09/12 04:42:12;;;;;;;28.10;22.70;;;;;;;10.17;85.35;98650.20;88185;1277;22588;-72
2022/09/12 04:44:14;;;;;;;29.00;24.30;;;;;;;10.17;85.35;98650.94;88222;1274;22699;-71
2022/09/12 04:46:19;;;;;;;33.80;24.30;;;;;;;10.15;85.38;98652.59;88241;1277;22717;-72
2022/09/12 04:48:20;;;;;;;37.70;25.40;;;;;;;10.14;85.47;98648.65;88278;1277;23353;-72
2022/09/12 04:50:22;;;;;;;38.40;24.40;;;;;;;10.13;85.33;98654.45;88268;1276;22559;-70
2022/09/12 04:52:24;;;;;;;34.20;24.40;;;;;;;10.13;85.33;98652.55;88323;1277;22560;-73
2022/09/12 04:54:26;;;;;;;35.10;25.60;;;;;;;10.13;85.48;98656.26;88263;1275;22693;-72
2022/09/12 04:56:28;;;;;;;35.70;25.30;;;;;;;10.12;85.51;98659.30;88026;1281;26537;-73
2022/09/12 04:58:32;;;;;;;36.00;25.80;;;;;;;10.12;85.61;98658.05;88045;1278;22566;-71
2022/09/12 05:00:34;;;;;;;33.70;26.10;;;;;;;10.13;85.64;98657.14;88451;1278;23717;-72
2022/09/12 05:02:35;;;;;;;38.10;25.10;;;;;;;10.13;85.59;98658.70;88266;1277;22694;-72
2022/09/12 05:04:37;;;;;;;41.20;25.00;;;;;;;10.13;85.56;98663.60;88194;1277;23954;-73
2022/09/12 05:06:40;;;;;;;45.30;25.90;;;;;;;10.13;85.55;98668.35;88264;1278;22760;-73
2022/09/12 05:08:42;;;;;;;38.60;25.70;;;;;;;10.14;85.44;98668.85;88469;1277;23425;-73
2022/09/12 05:10:44;;;;;;;30.60;23.90;;;;;;;10.15;85.67;98672.09;88209;1276;22640;-72
2022/09/12 05:12:46;;;;;;;40.30;23.20;;;;;;;10.17;85.74;98669.73;88312;1277;22852;-73
2022/09/12 05:14:47;;;;;;;31.10;23.80;;;;;;;10.19;85.70;98677.70;88183;1277;23134;-72
2022/09/12 05:16:49;;;;;;;28.40;22.40;;;;;;;10.21;85.78;98675.13;88210;1277;23384;-73
2022/09/12 05:18:51;;;;;;;34.60;18.60;;;;;;;10.23;85.57;98671.00;88234;1278;24254;-71
2022/09/12 05:20:53;;;;;;;19.20;15.50;;;;;;;10.26;85.75;98676.13;88130;1278;22629;-71
2022/09/12 05:22:55;;;;;;;15.80;14.30;;;;;;;10.27;85.81;98675.36;88250;1275;22596;-73
2022/09/12 05:24:57;;;;;;;23.30;11.60;;;;;;;10.30;85.73;98680.13;88255;1276;22966;-73
2022/09/12 05:26:58;;;;;;;14.10;10.80;;;;;;;10.32;85.64;98678.45;88151;1278;25456;-72
2022/09/12 05:29:03;;;;;;;10.80;9.70;;;;;;;10.34;85.65;98682.20;88093;1278;22842;-73
2022/09/12 05:31:14;;;;;;;16.20;9.20;;;;;;;10.35;85.64;98684.61;88190;1277;22720;-72
2022/09/12 05:33:15;;;;;;;16.70;9.50;;;;;;;10.38;85.42;98687.45;89086;1276;22620;-73
2022/09/12 05:35:17;;;;;;;11.90;9.10;;;;;;;10.40;85.45;98686.83;88160;1277;22700;-73
2022/09/12 05:37:18;;;;;;;9.60;8.50;;;;;;;10.44;85.47;98693.34;88226;1277;22606;-73
2022/09/12 05:39:20;;;;;;;8.30;7.50;;;;;;;10.47;85.42;98695.27;88106;1276;23284;-72
2022/09/12 05:41:26;;;;;;;17.40;7.10;;;;;;;10.49;85.41;98693.56;88116;1276;24451;-70
2022/09/12 05:43:28;;;;;;;8.10;7.20;;;;;;;10.53;85.39;98696.88;88248;1277;22553;-72
2022/09/12 05:45:31;;;;;;;11.50;7.80;;;;;;;10.56;85.25;98694.42;88258;1276;23050;-70
2022/09/12 05:47:32;;;;;;;9.50;7.00;;;;;;;10.59;85.13;98692.66;88097;1277;22628;-72
2022/09/12 05:49:34;;;;;;;8.70;6.60;;;;;;;10.62;85.05;98691.64;88117;1277;23251;-70
2022/09/12 05:51:40;;;;;;;8.10;4.90;;;;;;;10.66;85.15;98690.58;88101;1277;22589;-73
2022/09/12 05:53:42;;;;;;;10.20;6.40;;;;;;;10.67;85.01;98690.66;88098;1277;22599;-72
2022/09/12 05:55:43;;;;;;;9.20;6.00;;;;;;;10.70;84.87;98685.59;88113;1277;22669;-74
2022/09/12 05:57:45;;;;;;;8.50;6.20;;;;;;;10.72;84.82;98685.98;88044;1278;23072;-73
2022/09/12 05:59:48;;;;;;;10.70;6.20;;;;;;;10.76;84.77;98689.85;88003;1280;22591;-72
2022/09/12 06:01:51;;;;;;;9.90;5.80;;;;;;;10.81;84.85;98693.09;88144;1277;22562;-73
2022/09/12 06:03:55;;;;;;;5.80;5.30;;;;;;;10.87;85.04;98693.64;87945;1279;22551;-72
2022/09/12 06:05:56;;;;;;;16.00;5.50;;;;;;;10.94;84.92;98694.02;88456;1276;22720;-73
2022/09/12 06:07:58;;;;;;;9.50;5.10;;;;;;;10.99;84.69;98695.30;88089;1277;22583;-72
2022/09/12 06:10:00;;;;;;;7.80;5.00;;;;;;;11.02;84.65;98692.83;88200;1276;23168;-72
2022/09/12 06:12:02;;;;;;;7.90;5.30;;;;;;;11.05;84.53;98690.38;88165;1276;22937;-73
2022/09/12 06:14:04;;;;;;;8.00;5.40;;;;;;;11.07;84.51;98693.44;88170;1278;23831;-71
2022/09/12 06:16:08;;;;;;;11.80;5.60;;;;;;;11.11;84.38;98694.33;88159;1277;22692;-70
2022/09/12 06:18:10;;;;;;;6.10;5.50;;;;;;;11.16;84.47;98694.40;88704;1275;25851;-72
2022/09/12 06:20:12;;;;;;;5.60;4.80;;;;;;;11.22;84.43;98698.80;88107;1276;22585;-73
2022/09/12 06:22:13;;;;;;;5.20;4.70;;;;;;;11.28;84.39;98699.67;88184;1276;22674;-73
2022/09/12 06:24:16;;;;;;;6.80;4.50;;;;;;;11.34;84.33;98695.34;88162;1279;23655;-73
2022/09/12 06:26:22;;;;;;;11.10;4.90;;;;;;;11.40;84.29;98694.29;88120;1278;22592;-69
2022/09/12 06:28:24;;;;;;;5.20;4.70;;;;;;;11.46;84.28;98694.16;88116;1278;22562;-73
2022/09/12 06:30:26;;;;;;;7.30;4.30;;;;;;;11.50;84.04;98696.56;88038;1277;22578;-71
2022/09/12 06:32:30;;;;;;;13.10;4.80;;;;;;;11.50;84.00;98697.21;88421;1276;22586;-73
2022/09/12 06:34:35;;;;;;;11.90;4.40;;;;;;;11.54;83.97;98697.70;88285;1277;23183;-73
2022/09/12 06:36:42;;;;;;;7.10;5.10;;;;;;;11.57;83.94;98694.92;88225;1276;22551;-73
2022/09/12 06:38:45;;;;;;;5.90;4.80;;;;;;;11.62;83.96;98699.77;88146;1277;23159;-73
2022/09/12 06:40:46;;;;;;;7.50;5.20;;;;;;;11.65;83.81;98701.69;88220;1276;24087;-73
2022/09/12 06:42:48;;;;;;;8.80;5.00;;;;;;;11.72;83.89;98706.87;88400;1276;23723;-71
2022/09/12 06:44:49;;;;;;;15.90;5.20;;;;;;;11.77;83.76;98710.50;88265;1280;22845;-71
2022/09/12 06:46:52;;;;;;;8.80;4.90;;;;;;;11.78;83.66;98705.88;88342;1276;23206;-73
2022/09/12 06:48:56;;;;;;;11.70;4.40;;;;;;;11.79;83.78;98708.25;88388;1276;22603;-71
2022/09/12 06:51:03;;;;;;;6.10;4.30;;;;;;;11.80;83.50;98708.04;90621;1277;22283;-73
2022/09/12 06:53:05;;;;;;;5.60;4.30;;;;;;;11.83;83.40;98707.53;88730;1277;25333;-73
2022/09/12 06:55:07;;;;;;;4.70;4.10;;;;;;;11.85;83.29;98711.27;88207;1278;25387;-73
2022/09/12 06:57:09;;;;;;;16.00;4.50;;;;;;;11.87;83.23;98711.34;88174;1277;22557;-73
2022/09/12 06:59:11;;;;;;;4.60;4.20;;;;;;;11.89;83.28;98712.43;88252;1277;24399;-72
2022/09/12 07:01:16;;;;;;;4.60;3.90;;;;;;;11.90;83.09;98713.61;88578;1276;22610;-74
2022/09/12 07:03:18;;;;;;;7.90;3.60;;;;;;;11.93;83.15;98713.65;88523;1275;23248;-74
2022/09/12 07:05:23;;;;;;;6.00;3.80;;;;;;;11.97;83.25;98712.73;88624;1276;22493;-73
2022/09/12 07:07:25;;;;;;;10.10;4.20;;;;;;;12.00;83.09;98715.90;88709;1274;23977;-74
2022/09/12 07:09:29;;;;;;;13.40;4.50;;;;;;;12.04;83.14;98718.48;88507;1276;23298;-72
2022/09/12 07:11:33;;;;;;;15.30;4.30;;;;;;;12.07;82.53;98720.61;88515;1277;22575;-71
2022/09/12 07:13:35;;;;;;;7.50;3.90;;;;;;;12.09;82.53;98722.61;88757;1277;23891;-72
2022/09/12 07:15:37;;;;;;;8.10;4.20;;;;;;;12.08;82.63;98722.81;88375;1278;22609;-74
2022/09/12 07:17:39;;;;;;;12.10;3.70;;;;;;;12.10;82.69;98721.88;88348;1278;22629;-74
2022/09/12 07:19:40;;;;;;;13.10;4.10;;;;;;;12.15;82.77;98725.42;88501;1276;24218;-72
2022/09/12 07:21:42;;;;;;;5.40;3.50;;;;;;;12.20;82.67;98715.46;88350;1277;22716;-71
2022/09/12 07:23:44;;;;;;;9.90;3.70;;;;;;;12.23;82.42;98718.76;88505;1276;22588;-73
2022/09/12 07:25:59;;;;;;;10.60;3.40;;;;;;;12.29;82.07;98720.36;88383;1278;23739;-73
2022/09/12 07:28:01;;;;;;;10.70;3.80;;;;;;;12.32;81.92;98723.73;88559;1275;22605;-75
2022/09/12 07:30:06;;;;;;;12.50;4.00;;;;;;;12.30;81.94;98724.91;88326;1278;25690;-73
2022/09/12 07:32:08;;;;;;;7.70;3.60;;;;;;;12.26;82.01;98727.40;88701;1274;24341;-74
2022/09/12 07:34:10;;;;;;;15.20;3.20;;;;;;;12.24;81.84;98730.89;88479;1276;26724;-73
2022/09/12 07:36:16;;;;;;;10.80;3.50;;;;;;;12.22;81.67;98732.59;88321;1278;22601;-71
2022/09/12 07:38:18;;;;;;;7.40;3.80;;;;;;;12.22;81.38;98731.52;88445;1276;25095;-73
2022/09/12 07:40:20;;;;;;;12.90;3.50;;;;;;;12.26;81.44;98733.05;88368;1276;22572;-73
2022/09/12 07:42:22;;;;;;;7.10;3.30;;;;;;;12.31;81.44;98729.43;88524;1276;22729;-72
2022/09/12 07:44:24;;;;;;;7.30;3.10;;;;;;;12.35;81.57;98732.71;88401;1276;22564;-73
2022/09/12 07:46:28;;;;;;;6.40;3.90;;;;;;;12.39;81.57;98736.33;88348;1276;22784;-74
2022/09/12 07:48:30;;;;;;;11.90;3.80;;;;;;;12.46;81.27;98737.17;88330;1277;25389;-71
2022/09/12 07:50:32;;;;;;;5.50;2.80;;;;;;;12.52;81.11;98744.76;88183;1276;25363;-73
2022/09/12 07:52:34;;;;;;;6.70;3.30;;;;;;;12.55;80.78;98750.91;88262;1275;22547;-73
2022/09/12 07:54:36;;;;;;;5.70;3.20;;;;;;;12.51;80.59;98751.88;88306;1276;22630;-73
2022/09/12 07:56:37;;;;;;;7.80;3.60;;;;;;;12.50;80.69;98747.88;88217;1276;22958;-74
2022/09/12 07:58:41;;;;;;;4.40;3.60;;;;;;;12.54;80.33;98741.63;88253;1276;25193;-74
2022/09/12 08:00:44;;;;;;;4.30;3.30;;;;;;;12.63;79.89;98747.25;88184;1277;22845;-73
2022/09/12 08:02:51;;;;;;;5.00;3.40;;;;;;;12.69;79.64;98744.21;88214;1276;22583;-74
2022/09/12 08:04:52;;;;;;;2.90;2.70;;;;;;;12.73;79.61;98741.52;88271;1279;22609;-74
2022/09/12 08:06:54;;;;;;;6.00;2.70;;;;;;;12.76;79.42;98742.04;88125;1277;22714;-74
2022/09/12 08:08:57;;;;;;;14.10;3.10;;;;;;;12.83;79.31;98742.31;88213;1277;22734;-72
2022/09/12 08:11:01;;;;;;;3.80;2.70;;;;;;;12.94;79.39;98737.63;88245;1276;23665;-73
2022/09/12 08:13:03;;;;;;;3.30;3.00;;;;;;;13.04;79.57;98745.11;88254;1276;24552;-75
2022/09/12 08:15:06;;;;;;;7.90;4.30;;;;;;;13.11;79.52;98743.81;88131;1276;24242;-71
2022/09/12 08:17:07;;;;;;;6.50;4.10;;;;;;;13.14;79.42;98744.30;88338;1276;22605;-75
2022/09/12 08:19:09;;;;;;;3.80;2.60;;;;;;;13.14;79.31;98745.02;88192;1276;22584;-71
2022/09/12 08:21:16;;;;;;;7.00;3.10;;;;;;;13.18;79.17;98752.22;88153;1277;24227;-73
2022/09/12 08:23:20;;;;;;;3.70;3.20;;;;;;;13.24;78.90;98751.80;88157;1277;24214;-73
2022/09/12 08:25:22;;;;;;;11.20;3.60;;;;;;;13.31;79.05;98753.30;88255;1276;22678;-73
2022/09/12 08:27:24;;;;;;;10.40;3.00;;;;;;;13.41;79.32;98756.39;88305;1274;24433;-74
2022/09/12 08:29:25;;;;;;;4.30;2.80;;;;;;;13.55;78.69;98754.16;88173;1276;24356;-72
2022/09/12 08:31:27;;;;;;;5.20;2.90;;;;;;;13.55;77.64;98752.05;88182;1276;25446;-72
2022/09/12 08:33:32;;;;;;;8.20;3.20;;;;;;;13.50;77.92;98757.30;88117;1276;22699;-73
2022/09/12 08:35:34;;;;;;;4.40;2.90;;;;;;;13.49;77.79;98754.34;88354;1276;24280;-73
2022/09/12 08:37:37;;;;;;;4.20;2.70;;;;;;;13.57;78.12;98751.86;88225;1276;22741;-74
2022/09/12 08:39:39;;;;;;;5.90;2.90;;;;;;;13.72;77.93;98749.71;88189;1276;22603;-73
2022/09/12 08:41:44;;;;;;;8.00;2.80;;;;;;;13.73;76.74;98750.30;88269;1276;22743;-73
2022/09/12 08:44:00;;;;;;;7.80;2.50;;;;;;;13.70;76.93;98752.28;88798;1276;22580;-74
2022/09/12 08:46:34;;;;;;;2.80;2.30;;;;;;;13.77;77.35;98748.95;88225;1275;25378;-72
2022/09/12 08:48:37;;;;;;;10.20;2.90;;;;;;;13.98;77.97;98749.74;88257;1276;22679;-73
2022/09/12 08:50:43;;;;;;;8.50;2.70;;;;;;;14.19;77.53;98750.52;88310;1276;22580;-74
2022/09/12 08:53:05;;;;;;;4.50;2.70;;;;;;;14.24;77.39;98746.84;88128;1277;22676;-74
2022/09/12 08:55:30;;;;;;;4.10;2.50;;;;;;;14.27;76.98;98758.46;88173;1276;24789;-73
2022/09/12 08:57:32;;;;;;;14.70;2.70;;;;;;;14.22;76.61;98756.50;88255;1276;22603;-74
2022/09/12 08:59:41;;;;;;;4.90;2.70;;;;;;;14.14;76.00;98753.45;88151;1276;22589;-72
2022/09/12 09:01:44;;;;;;;8.30;3.10;;;;;;;14.13;76.69;98752.64;88187;1276;23085;-73
2022/09/12 09:04:01;;;;;;;11.30;2.90;;;;;;;14.21;76.71;98753.21;88407;1276;24702;-72
2022/09/12 09:06:23;;;;;;;6.80;2.90;;;;;;;14.27;76.18;98748.92;88351;1275;22598;-73
2022/09/12 09:08:43;;;;;;;6.30;2.60;;;;;;;14.37;76.39;98752.13;88264;1275;26152;-74
2022/09/12 09:10:57;;;;;;;2.80;2.60;;;;;;;14.50;75.90;98742.07;88250;1274;22766;-73
2022/09/12 09:16:02;;;;;;;3.70;2.40;;;;;;;14.76;75.78;98750.23;88290;1276;22820;-74
2022/09/12 09:18:31;;;;;;;3.20;2.40;;;;;;;14.74;75.23;98748.77;88166;1277;25325;-73
2022/09/12 09:20:42;;;;;;;4.50;2.50;;;;;;;14.77;75.21;98745.16;87862;1281;25413;-74
2022/09/12 09:22:58;;;;;;;;;;;;;;;14.87;75.35;98739.77;88547;1284;22558;-73
2022/09/12 09:25:06;;;;;;;3.20;2.10;;;;;;;15.00;75.63;98740.10;87851;1281;25441;-73
2022/09/12 09:27:27;;;;;;;4.20;2.20;;;;;;;15.14;75.19;98737.99;87892;1281;22832;-73
2022/09/12 09:29:38;;;;;;;2.10;1.90;;;;;;;15.24;74.60;98740.19;88042;1282;23559;-72
2022/09/12 09:31:41;;;;;;;8.10;2.20;;;;;;;15.21;74.00;98739.14;87755;1284;22657;-74
2022/09/12 09:33:52;;;;;;;3.10;1.90;;;;;;;15.15;74.18;98739.52;87864;1284;24815;-73
2022/09/12 09:36:21;;;;;;;3.30;2.20;;;;;;;15.18;73.90;98739.14;88426;1285;23008;-72
2022/09/12 09:38:41;;;;;;;3.10;1.80;;;;;;;15.27;73.72;98738.90;87823;1282;22614;-74
2022/09/12 09:40:55;;;;;;;2.20;2.00;;;;;;;15.36;74.08;98741.26;87824;1282;22725;-74
2022/09/12 09:43:18;;;;;;;6.30;2.20;;;;;;;15.46;73.68;98740.19;87778;1281;24229;-74
2022/09/12 09:45:23;;;;;;;3.00;2.10;;;;;;;15.54;73.57;98741.57;87771;1281;22589;-72
2022/09/12 09:47:25;;;;;;;5.60;2.00;;;;;;;15.48;73.36;98735.76;87869;1284;22697;-73
2022/09/12 09:49:32;;;;;;;3.00;2.20;;;;;;;15.56;73.69;98741.95;88112;1281;22934;-72